sensor_id;sensor_type;location;lat;lon;timestamp;temperature;humidity
51801;DHT22;37855;53.204;6.568;2023-04-15T00:00:11;7.40;71.80
51801;DHT22;37855;53.204;6.568;2023-04-15T00:02:36;7.30;72.30
51801;DHT22;37855;53.204;6.568;2023-04-15T00:05:04;7.30;72.00
51801;DHT22;37855;53.204;6.568;2023-04-15T00:07:30;7.30;72.10
51801;DHT22;37855;53.204;6.568;2023-04-15T00:09:56;7.30;72.10
51801;DHT22;37855;53.204;6.568;2023-04-15T00:12:23;7.20;72.30
51801;DHT22;37855;53.204;6.568;2023-04-15T00:14:49;7.20;72.60
51801;DHT22;37855;53.204;6.568;2023-04-15T00:17:15;7.20;72.80
51801;DHT22;37855;53.204;6.568;2023-04-15T00:19:41;7.10;73.40
51801;DHT22;37855;53.204;6.568;2023-04-15T00:22:08;7.10;73.50
51801;DHT22;37855;53.204;6.568;2023-04-15T00:24:34;7.00;73.60
51801;DHT22;37855;53.204;6.568;2023-04-15T00:26:59;7.00;73.60
51801;DHT22;37855;53.204;6.568;2023-04-15T00:29:25;7.10;73.90
51801;DHT22;37855;53.204;6.568;2023-04-15T00:31:52;7.10;73.60
51801;DHT22;37855;53.204;6.568;2023-04-15T00:34:18;7.00;74.00
51801;DHT22;37855;53.204;6.568;2023-04-15T00:36:44;7.00;74.20
51801;DHT22;37855;53.204;6.568;2023-04-15T00:39:10;7.00;74.20
51801;DHT22;37855;53.204;6.568;2023-04-15T00:41:36;6.90;74.50
51801;DHT22;37855;53.204;6.568;2023-04-15T00:44:05;6.90;74.50
51801;DHT22;37855;53.204;6.568;2023-04-15T00:46:33;6.90;74.90
51801;DHT22;37855;53.204;6.568;2023-04-15T00:48:59;6.90;74.80
51801;DHT22;37855;53.204;6.568;2023-04-15T00:51:26;7.00;74.40
51801;DHT22;37855;53.204;6.568;2023-04-15T00:53:51;7.00;74.30
51801;DHT22;37855;53.204;6.568;2023-04-15T00:56:19;7.00;74.10
51801;DHT22;37855;53.204;6.568;2023-04-15T00:58:47;7.00;74.10
51801;DHT22;37855;53.204;6.568;2023-04-15T01:01:12;7.00;74.30
51801;DHT22;37855;53.204;6.568;2023-04-15T01:03:38;6.90;74.20
51801;DHT22;37855;53.204;6.568;2023-04-15T01:06:04;7.00;74.30
51801;DHT22;37855;53.204;6.568;2023-04-15T01:08:30;7.00;74.30
51801;DHT22;37855;53.204;6.568;2023-04-15T01:10:56;6.90;74.30
51801;DHT22;37855;53.204;6.568;2023-04-15T01:13:23;6.80;74.90
51801;DHT22;37855;53.204;6.568;2023-04-15T01:15:52;6.90;74.50
51801;DHT22;37855;53.204;6.568;2023-04-15T01:18:18;6.80;74.80
51801;DHT22;37855;53.204;6.568;2023-04-15T01:20:45;6.80;74.70
51801;DHT22;37855;53.204;6.568;2023-04-15T01:23:11;6.90;74.40
51801;DHT22;37855;53.204;6.568;2023-04-15T01:25:37;6.80;74.50
51801;DHT22;37855;53.204;6.568;2023-04-15T01:28:04;6.80;74.30
51801;DHT22;37855;53.204;6.568;2023-04-15T01:30:33;6.80;74.50
51801;DHT22;37855;53.204;6.568;2023-04-15T01:32:59;6.90;74.30
51801;DHT22;37855;53.204;6.568;2023-04-15T01:35:26;6.80;74.30
51801;DHT22;37855;53.204;6.568;2023-04-15T01:37:53;6.70;74.30
51801;DHT22;37855;53.204;6.568;2023-04-15T01:40:19;6.60;74.70
51801;DHT22;37855;53.204;6.568;2023-04-15T01:42:45;6.60;74.70
51801;DHT22;37855;53.204;6.568;2023-04-15T01:45:14;6.70;74.70
51801;DHT22;37855;53.204;6.568;2023-04-15T01:47:40;6.50;74.90
51801;DHT22;37855;53.204;6.568;2023-04-15T01:50:06;6.50;74.90
51801;DHT22;37855;53.204;6.568;2023-04-15T01:52:32;6.50;74.90
51801;DHT22;37855;53.204;6.568;2023-04-15T01:54:58;6.50;75.10
51801;DHT22;37855;53.204;6.568;2023-04-15T01:57:24;6.50;75.40
51801;DHT22;37855;53.204;6.568;2023-04-15T01:59:49;6.50;75.20
51801;DHT22;37855;53.204;6.568;2023-04-15T02:02:15;6.40;75.20
51801;DHT22;37855;53.204;6.568;2023-04-15T02:04:41;6.40;75.20
51801;DHT22;37855;53.204;6.568;2023-04-15T02:07:07;6.40;75.50
51801;DHT22;37855;53.204;6.568;2023-04-15T02:09:33;6.40;75.40
51801;DHT22;37855;53.204;6.568;2023-04-15T02:11:58;6.30;75.60
51801;DHT22;37855;53.204;6.568;2023-04-15T02:14:25;6.20;76.00
51801;DHT22;37855;53.204;6.568;2023-04-15T02:16:51;6.20;76.00
51801;DHT22;37855;53.204;6.568;2023-04-15T02:19:17;6.20;76.60
51801;DHT22;37855;53.204;6.568;2023-04-15T02:21:42;6.20;76.10
51801;DHT22;37855;53.204;6.568;2023-04-15T02:24:09;6.20;76.20
51801;DHT22;37855;53.204;6.568;2023-04-15T02:26:36;6.10;76.30
51801;DHT22;37855;53.204;6.568;2023-04-15T02:29:02;6.10;76.30
51801;DHT22;37855;53.204;6.568;2023-04-15T02:31:28;6.10;76.30
51801;DHT22;37855;53.204;6.568;2023-04-15T02:33:53;6.10;76.30
51801;DHT22;37855;53.204;6.568;2023-04-15T02:36:19;6.10;76.40
51801;DHT22;37855;53.204;6.568;2023-04-15T02:38:45;6.00;76.80
51801;DHT22;37855;53.204;6.568;2023-04-15T02:41:11;6.00;76.40
51801;DHT22;37855;53.204;6.568;2023-04-15T02:43:37;6.00;76.50
51801;DHT22;37855;53.204;6.568;2023-04-15T02:46:04;6.00;76.80
51801;DHT22;37855;53.204;6.568;2023-04-15T02:48:33;6.00;76.60
51801;DHT22;37855;53.204;6.568;2023-04-15T02:51:19;6.00;76.40
51801;DHT22;37855;53.204;6.568;2023-04-15T02:53:46;6.00;76.60
51801;DHT22;37855;53.204;6.568;2023-04-15T02:56:12;6.00;76.40
51801;DHT22;37855;53.204;6.568;2023-04-15T02:58:40;6.00;76.60
51801;DHT22;37855;53.204;6.568;2023-04-15T03:01:06;5.90;76.40
51801;DHT22;37855;53.204;6.568;2023-04-15T03:03:33;5.90;76.40
51801;DHT22;37855;53.204;6.568;2023-04-15T03:05:59;5.90;76.50
51801;DHT22;37855;53.204;6.568;2023-04-15T03:08:25;6.00;76.30
51801;DHT22;37855;53.204;6.568;2023-04-15T03:10:51;5.90;76.70
51801;DHT22;37855;53.204;6.568;2023-04-15T03:13:17;5.80;77.10
51801;DHT22;37855;53.204;6.568;2023-04-15T03:15:45;5.80;76.90
51801;DHT22;37855;53.204;6.568;2023-04-15T03:18:11;5.90;76.60
51801;DHT22;37855;53.204;6.568;2023-04-15T03:20:39;5.90;76.50
51801;DHT22;37855;53.204;6.568;2023-04-15T03:23:05;5.90;76.40
51801;DHT22;37855;53.204;6.568;2023-04-15T03:25:31;5.90;76.50
51801;DHT22;37855;53.204;6.568;2023-04-15T03:27:56;5.80;76.70
51801;DHT22;37855;53.204;6.568;2023-04-15T03:30:22;5.80;76.90
51801;DHT22;37855;53.204;6.568;2023-04-15T03:32:48;5.80;76.60
51801;DHT22;37855;53.204;6.568;2023-04-15T03:35:14;5.90;76.50
51801;DHT22;37855;53.204;6.568;2023-04-15T03:37:40;5.90;76.60
51801;DHT22;37855;53.204;6.568;2023-04-15T03:40:09;5.90;76.50
51801;DHT22;37855;53.204;6.568;2023-04-15T03:42:34;5.90;77.00
51801;DHT22;37855;53.204;6.568;2023-04-15T03:45:00;6.00;76.50
51801;DHT22;37855;53.204;6.568;2023-04-15T03:47:26;5.90;76.50
51801;DHT22;37855;53.204;6.568;2023-04-15T03:49:51;6.00;76.60
51801;DHT22;37855;53.204;6.568;2023-04-15T03:52:17;6.00;76.50
51801;DHT22;37855;53.204;6.568;2023-04-15T03:54:43;6.00;76.50
51801;DHT22;37855;53.204;6.568;2023-04-15T03:57:08;6.10;76.70
51801;DHT22;37855;53.204;6.568;2023-04-15T03:59:34;6.10;76.60
51801;DHT22;37855;53.204;6.568;2023-04-15T04:01:59;6.00;76.90
51801;DHT22;37855;53.204;6.568;2023-04-15T04:04:28;6.00;76.60
51801;DHT22;37855;53.204;6.568;2023-04-15T04:06:53;5.90;76.70
51801;DHT22;37855;53.204;6.568;2023-04-15T04:09:19;6.00;76.70
51801;DHT22;37855;53.204;6.568;2023-04-15T04:11:45;6.00;76.70
51801;DHT22;37855;53.204;6.568;2023-04-15T04:14:11;6.00;76.70
51801;DHT22;37855;53.204;6.568;2023-04-15T04:16:36;6.10;76.70
51801;DHT22;37855;53.204;6.568;2023-04-15T04:19:03;6.10;76.60
51801;DHT22;37855;53.204;6.568;2023-04-15T04:21:29;6.20;76.80
51801;DHT22;37855;53.204;6.568;2023-04-15T04:23:55;6.20;76.60
51801;DHT22;37855;53.204;6.568;2023-04-15T04:26:21;6.10;76.60
51801;DHT22;37855;53.204;6.568;2023-04-15T04:28:47;6.20;76.70
51801;DHT22;37855;53.204;6.568;2023-04-15T04:31:13;6.20;76.70
51801;DHT22;37855;53.204;6.568;2023-04-15T04:33:38;6.20;76.60
51801;DHT22;37855;53.204;6.568;2023-04-15T04:36:05;6.20;76.70
51801;DHT22;37855;53.204;6.568;2023-04-15T04:38:30;6.20;76.50
51801;DHT22;37855;53.204;6.568;2023-04-15T04:40:59;6.20;76.50
51801;DHT22;37855;53.204;6.568;2023-04-15T04:43:25;6.20;76.50
51801;DHT22;37855;53.204;6.568;2023-04-15T04:45:51;6.30;76.20
51801;DHT22;37855;53.204;6.568;2023-04-15T04:48:17;6.30;76.00
51801;DHT22;37855;53.204;6.568;2023-04-15T04:50:43;6.30;76.00
51801;DHT22;37855;53.204;6.568;2023-04-15T04:53:09;6.30;76.10
51801;DHT22;37855;53.204;6.568;2023-04-15T04:55:38;6.30;76.00
51801;DHT22;37855;53.204;6.568;2023-04-15T04:58:04;6.30;75.90
51801;DHT22;37855;53.204;6.568;2023-04-15T05:00:31;6.30;76.00
51801;DHT22;37855;53.204;6.568;2023-04-15T05:02:56;6.30;76.20
51801;DHT22;37855;53.204;6.568;2023-04-15T05:05:23;6.30;76.10
51801;DHT22;37855;53.204;6.568;2023-04-15T05:07:48;6.30;75.90
51801;DHT22;37855;53.204;6.568;2023-04-15T05:10:15;6.30;75.90
51801;DHT22;37855;53.204;6.568;2023-04-15T05:12:41;6.30;75.90
51801;DHT22;37855;53.204;6.568;2023-04-15T05:15:08;6.40;75.90
51801;DHT22;37855;53.204;6.568;2023-04-15T05:17:33;6.40;75.90
51801;DHT22;37855;53.204;6.568;2023-04-15T05:20:00;6.40;75.70
51801;DHT22;37855;53.204;6.568;2023-04-15T05:22:26;6.40;75.70
51801;DHT22;37855;53.204;6.568;2023-04-15T05:24:52;6.40;75.60
51801;DHT22;37855;53.204;6.568;2023-04-15T05:27:19;6.40;75.60
51801;DHT22;37855;53.204;6.568;2023-04-15T05:29:44;6.50;75.60
51801;DHT22;37855;53.204;6.568;2023-04-15T05:32:10;6.50;75.70
51801;DHT22;37855;53.204;6.568;2023-04-15T05:34:36;6.60;75.60
51801;DHT22;37855;53.204;6.568;2023-04-15T05:37:02;6.60;75.50
51801;DHT22;37855;53.204;6.568;2023-04-15T05:39:27;6.70;75.60
51801;DHT22;37855;53.204;6.568;2023-04-15T05:41:53;6.70;75.50
51801;DHT22;37855;53.204;6.568;2023-04-15T05:44:20;6.70;75.50
51801;DHT22;37855;53.204;6.568;2023-04-15T05:46:45;6.70;75.60
51801;DHT22;37855;53.204;6.568;2023-04-15T05:49:11;6.80;75.60
51801;DHT22;37855;53.204;6.568;2023-04-15T05:51:37;6.80;75.80
51801;DHT22;37855;53.204;6.568;2023-04-15T05:54:02;6.90;75.70
51801;DHT22;37855;53.204;6.568;2023-04-15T05:56:28;6.90;75.70
51801;DHT22;37855;53.204;6.568;2023-04-15T05:58:55;6.90;75.70
51801;DHT22;37855;53.204;6.568;2023-04-15T06:01:24;7.00;75.80
51801;DHT22;37855;53.204;6.568;2023-04-15T06:03:53;7.10;76.00
51801;DHT22;37855;53.204;6.568;2023-04-15T06:06:19;7.10;76.00
51801;DHT22;37855;53.204;6.568;2023-04-15T06:08:45;7.20;75.90
51801;DHT22;37855;53.204;6.568;2023-04-15T06:11:11;7.20;75.90
51801;DHT22;37855;53.204;6.568;2023-04-15T06:13:39;7.20;75.90
51801;DHT22;37855;53.204;6.568;2023-04-15T06:16:06;7.20;75.90
51801;DHT22;37855;53.204;6.568;2023-04-15T06:18:32;7.30;75.90
51801;DHT22;37855;53.204;6.568;2023-04-15T06:20:58;7.30;75.90
51801;DHT22;37855;53.204;6.568;2023-04-15T06:23:24;7.30;76.00
51801;DHT22;37855;53.204;6.568;2023-04-15T06:25:49;7.30;76.20
51801;DHT22;37855;53.204;6.568;2023-04-15T06:28:15;7.40;76.00
51801;DHT22;37855;53.204;6.568;2023-04-15T06:30:41;7.50;76.20
51801;DHT22;37855;53.204;6.568;2023-04-15T06:33:07;7.60;76.00
51801;DHT22;37855;53.204;6.568;2023-04-15T06:35:33;7.60;75.90
51801;DHT22;37855;53.204;6.568;2023-04-15T06:37:58;7.60;76.10
51801;DHT22;37855;53.204;6.568;2023-04-15T06:40:24;7.60;76.20
51801;DHT22;37855;53.204;6.568;2023-04-15T06:42:52;7.70;76.30
51801;DHT22;37855;53.204;6.568;2023-04-15T06:45:17;7.80;76.00
51801;DHT22;37855;53.204;6.568;2023-04-15T06:47:43;7.80;76.20
51801;DHT22;37855;53.204;6.568;2023-04-15T06:50:09;7.80;76.20
51801;DHT22;37855;53.204;6.568;2023-04-15T06:52:35;7.90;76.30
51801;DHT22;37855;53.204;6.568;2023-04-15T06:55:01;7.90;76.60
51801;DHT22;37855;53.204;6.568;2023-04-15T06:57:27;8.00;76.40
51801;DHT22;37855;53.204;6.568;2023-04-15T06:59:53;8.10;76.20
51801;DHT22;37855;53.204;6.568;2023-04-15T07:02:19;8.10;76.00
51801;DHT22;37855;53.204;6.568;2023-04-15T07:04:46;8.10;76.30
51801;DHT22;37855;53.204;6.568;2023-04-15T07:07:12;8.10;76.50
51801;DHT22;37855;53.204;6.568;2023-04-15T07:09:40;8.20;76.30
51801;DHT22;37855;53.204;6.568;2023-04-15T07:12:06;8.20;76.50
51801;DHT22;37855;53.204;6.568;2023-04-15T07:14:32;8.30;76.50
51801;DHT22;37855;53.204;6.568;2023-04-15T07:16:57;8.30;76.60
51801;DHT22;37855;53.204;6.568;2023-04-15T07:19:23;8.30;76.80
51801;DHT22;37855;53.204;6.568;2023-04-15T07:21:48;8.40;76.40
51801;DHT22;37855;53.204;6.568;2023-04-15T07:24:14;8.50;76.00
51801;DHT22;37855;53.204;6.568;2023-04-15T07:26:43;8.50;75.80
51801;DHT22;37855;53.204;6.568;2023-04-15T07:29:12;8.60;75.30
51801;DHT22;37855;53.204;6.568;2023-04-15T07:31:39;8.50;75.30
51801;DHT22;37855;53.204;6.568;2023-04-15T07:34:06;8.60;75.00
51801;DHT22;37855;53.204;6.568;2023-04-15T07:36:32;8.60;75.00
51801;DHT22;37855;53.204;6.568;2023-04-15T07:38:57;8.60;74.80
51801;DHT22;37855;53.204;6.568;2023-04-15T07:41:23;8.70;74.10
51801;DHT22;37855;53.204;6.568;2023-04-15T07:43:50;8.60;74.40
51801;DHT22;37855;53.204;6.568;2023-04-15T07:46:18;8.50;74.70
51801;DHT22;37855;53.204;6.568;2023-04-15T07:48:44;8.50;74.70
51801;DHT22;37855;53.204;6.568;2023-04-15T07:51:10;8.60;74.60
51801;DHT22;37855;53.204;6.568;2023-04-15T07:53:37;8.60;74.40
51801;DHT22;37855;53.204;6.568;2023-04-15T07:56:03;8.60;73.80
51801;DHT22;37855;53.204;6.568;2023-04-15T07:58:28;8.70;74.10
51801;DHT22;37855;53.204;6.568;2023-04-15T08:00:54;8.70;73.60
51801;DHT22;37855;53.204;6.568;2023-04-15T08:03:21;8.70;73.40
51801;DHT22;37855;53.204;6.568;2023-04-15T08:05:47;8.90;72.00
51801;DHT22;37855;53.204;6.568;2023-04-15T08:08:13;8.80;72.00
51801;DHT22;37855;53.204;6.568;2023-04-15T08:10:38;8.80;72.30
51801;DHT22;37855;53.204;6.568;2023-04-15T08:13:04;8.80;72.20
51801;DHT22;37855;53.204;6.568;2023-04-15T08:15:30;8.80;72.40
51801;DHT22;37855;53.204;6.568;2023-04-15T08:17:57;8.80;72.00
51801;DHT22;37855;53.204;6.568;2023-04-15T08:20:26;8.80;72.30
51801;DHT22;37855;53.204;6.568;2023-04-15T08:22:52;8.70;72.50
51801;DHT22;37855;53.204;6.568;2023-04-15T08:25:18;8.70;72.70
51801;DHT22;37855;53.204;6.568;2023-04-15T08:27:44;8.70;72.30
51801;DHT22;37855;53.204;6.568;2023-04-15T08:30:11;8.60;72.40
51801;DHT22;37855;53.204;6.568;2023-04-15T08:32:37;8.60;72.30
51801;DHT22;37855;53.204;6.568;2023-04-15T08:35:03;8.60;72.30
51801;DHT22;37855;53.204;6.568;2023-04-15T08:37:29;8.70;72.10
51801;DHT22;37855;53.204;6.568;2023-04-15T08:39:54;8.60;72.10
51801;DHT22;37855;53.204;6.568;2023-04-15T08:42:27;8.50;72.30
51801;DHT22;37855;53.204;6.568;2023-04-15T08:44:55;8.60;72.20
51801;DHT22;37855;53.204;6.568;2023-04-15T08:47:25;8.50;72.20
51801;DHT22;37855;53.204;6.568;2023-04-15T08:49:54;8.50;72.20
51801;DHT22;37855;53.204;6.568;2023-04-15T08:52:24;8.60;71.90
51801;DHT22;37855;53.204;6.568;2023-04-15T08:54:54;8.60;71.80
51801;DHT22;37855;53.204;6.568;2023-04-15T08:57:26;8.60;71.60
51801;DHT22;37855;53.204;6.568;2023-04-15T08:59:55;8.60;71.70
51801;DHT22;37855;53.204;6.568;2023-04-15T09:02:25;8.60;71.50
51801;DHT22;37855;53.204;6.568;2023-04-15T09:04:52;8.60;71.20
51801;DHT22;37855;53.204;6.568;2023-04-15T09:07:20;8.50;71.60
51801;DHT22;37855;53.204;6.568;2023-04-15T09:09:47;8.50;71.30
51801;DHT22;37855;53.204;6.568;2023-04-15T09:12:13;8.50;71.50
51801;DHT22;37855;53.204;6.568;2023-04-15T09:14:39;8.50;71.60
51801;DHT22;37855;53.204;6.568;2023-04-15T09:17:09;8.50;71.60
51801;DHT22;37855;53.204;6.568;2023-04-15T09:19:37;8.60;71.20
51801;DHT22;37855;53.204;6.568;2023-04-15T09:22:03;8.70;71.10
51801;DHT22;37855;53.204;6.568;2023-04-15T09:24:37;8.80;70.90
51801;DHT22;37855;53.204;6.568;2023-04-15T09:27:03;8.70;71.20
51801;DHT22;37855;53.204;6.568;2023-04-15T09:29:29;8.70;70.50
51801;DHT22;37855;53.204;6.568;2023-04-15T09:31:54;8.80;69.80
51801;DHT22;37855;53.204;6.568;2023-04-15T09:34:20;8.90;69.30
51801;DHT22;37855;53.204;6.568;2023-04-15T09:39:13;8.90;69.30
51801;DHT22;37855;53.204;6.568;2023-04-15T09:41:39;9.00;69.60
51801;DHT22;37855;53.204;6.568;2023-04-15T09:44:05;9.00;69.70
51801;DHT22;37855;53.204;6.568;2023-04-15T09:46:42;9.10;69.70
51801;DHT22;37855;53.204;6.568;2023-04-15T09:49:09;9.20;68.70
51801;DHT22;37855;53.204;6.568;2023-04-15T09:51:35;9.20;68.90
51801;DHT22;37855;53.204;6.568;2023-04-15T09:54:04;9.10;68.90
51801;DHT22;37855;53.204;6.568;2023-04-15T09:56:37;9.10;69.10
51801;DHT22;37855;53.204;6.568;2023-04-15T09:59:09;9.10;69.20
51801;DHT22;37855;53.204;6.568;2023-04-15T10:01:35;9.20;68.60
51801;DHT22;37855;53.204;6.568;2023-04-15T10:04:02;9.10;68.70
51801;DHT22;37855;53.204;6.568;2023-04-15T10:06:29;9.10;68.50
51801;DHT22;37855;53.204;6.568;2023-04-15T10:08:56;9.20;68.70
51801;DHT22;37855;53.204;6.568;2023-04-15T10:11:23;9.20;68.50
51801;DHT22;37855;53.204;6.568;2023-04-15T10:13:50;9.20;68.50
51801;DHT22;37855;53.204;6.568;2023-04-15T10:16:18;9.20;68.70
51801;DHT22;37855;53.204;6.568;2023-04-15T10:18:55;9.30;68.60
51801;DHT22;37855;53.204;6.568;2023-04-15T10:21:21;9.30;68.90
51801;DHT22;37855;53.204;6.568;2023-04-15T10:23:48;9.20;69.30
51801;DHT22;37855;53.204;6.568;2023-04-15T10:26:14;9.20;69.80
51801;DHT22;37855;53.204;6.568;2023-04-15T10:28:43;9.20;70.10
51801;DHT22;37855;53.204;6.568;2023-04-15T10:31:11;9.20;70.10
51801;DHT22;37855;53.204;6.568;2023-04-15T10:33:38;9.30;70.00
51801;DHT22;37855;53.204;6.568;2023-04-15T10:36:04;9.30;69.90
51801;DHT22;37855;53.204;6.568;2023-04-15T10:38:40;9.10;70.20
51801;DHT22;37855;53.204;6.568;2023-04-15T10:43:45;9.20;70.50
51801;DHT22;37855;53.204;6.568;2023-04-15T10:46:10;9.10;70.70
51801;DHT22;37855;53.204;6.568;2023-04-15T10:48:36;9.10;70.90
51801;DHT22;37855;53.204;6.568;2023-04-15T10:51:02;9.20;70.50
51801;DHT22;37855;53.204;6.568;2023-04-15T10:53:28;9.20;69.70
51801;DHT22;37855;53.204;6.568;2023-04-15T10:55:56;9.20;69.30
51801;DHT22;37855;53.204;6.568;2023-04-15T10:58:23;9.20;69.40
51801;DHT22;37855;53.204;6.568;2023-04-15T11:00:51;9.10;69.50
51801;DHT22;37855;53.204;6.568;2023-04-15T11:03:41;9.10;70.00
51801;DHT22;37855;53.204;6.568;2023-04-15T11:06:08;9.10;69.80
51801;DHT22;37855;53.204;6.568;2023-04-15T11:08:53;9.20;69.40
51801;DHT22;37855;53.204;6.568;2023-04-15T11:11:20;9.20;68.80
51801;DHT22;37855;53.204;6.568;2023-04-15T11:13:50;9.10;68.90
51801;DHT22;37855;53.204;6.568;2023-04-15T11:16:17;9.10;69.20
51801;DHT22;37855;53.204;6.568;2023-04-15T11:18:55;9.10;69.50
51801;DHT22;37855;53.204;6.568;2023-04-15T11:21:24;9.10;69.60
51801;DHT22;37855;53.204;6.568;2023-04-15T11:23:50;9.20;69.50
51801;DHT22;37855;53.204;6.568;2023-04-15T11:26:16;9.20;69.30
51801;DHT22;37855;53.204;6.568;2023-04-15T11:28:43;9.20;69.10
51801;DHT22;37855;53.204;6.568;2023-04-15T11:31:17;9.40;68.70
51801;DHT22;37855;53.204;6.568;2023-04-15T11:34:04;9.40;68.80
51801;DHT22;37855;53.204;6.568;2023-04-15T11:36:30;9.40;68.80
51801;DHT22;37855;53.204;6.568;2023-04-15T11:38:59;9.40;68.80
51801;DHT22;37855;53.204;6.568;2023-04-15T11:41:24;9.30;69.50
51801;DHT22;37855;53.204;6.568;2023-04-15T11:43:52;9.30;69.50
51801;DHT22;37855;53.204;6.568;2023-04-15T11:46:17;9.30;69.50
51801;DHT22;37855;53.204;6.568;2023-04-15T11:48:45;9.30;69.60
51801;DHT22;37855;53.204;6.568;2023-04-15T11:51:12;9.30;69.70
51801;DHT22;37855;53.204;6.568;2023-04-15T11:53:48;9.30;69.80
51801;DHT22;37855;53.204;6.568;2023-04-15T11:56:27;9.40;69.50
51801;DHT22;37855;53.204;6.568;2023-04-15T11:58:55;9.40;69.50
51801;DHT22;37855;53.204;6.568;2023-04-15T12:01:36;9.40;69.80
51801;DHT22;37855;53.204;6.568;2023-04-15T12:04:12;9.30;69.60
51801;DHT22;37855;53.204;6.568;2023-04-15T12:06:38;9.20;69.80
51801;DHT22;37855;53.204;6.568;2023-04-15T12:09:11;9.20;70.30
51801;DHT22;37855;53.204;6.568;2023-04-15T12:11:47;9.20;70.30
51801;DHT22;37855;53.204;6.568;2023-04-15T12:14:26;9.10;70.40
51801;DHT22;37855;53.204;6.568;2023-04-15T12:17:03;9.10;70.80
51801;DHT22;37855;53.204;6.568;2023-04-15T12:19:30;9.10;71.00
51801;DHT22;37855;53.204;6.568;2023-04-15T12:22:02;9.10;71.20
51801;DHT22;37855;53.204;6.568;2023-04-15T12:24:31;9.20;71.00
51801;DHT22;37855;53.204;6.568;2023-04-15T12:27:00;9.20;71.20
51801;DHT22;37855;53.204;6.568;2023-04-15T12:29:27;9.20;71.30
51801;DHT22;37855;53.204;6.568;2023-04-15T12:31:54;9.20;71.30
51801;DHT22;37855;53.204;6.568;2023-04-15T12:34:35;9.20;71.60
51801;DHT22;37855;53.204;6.568;2023-04-15T12:37:03;9.30;71.30
51801;DHT22;37855;53.204;6.568;2023-04-15T12:39:34;9.30;71.60
51801;DHT22;37855;53.204;6.568;2023-04-15T12:42:00;9.20;72.10
51801;DHT22;37855;53.204;6.568;2023-04-15T12:44:26;9.20;72.40
51801;DHT22;37855;53.204;6.568;2023-04-15T12:46:52;9.30;72.30
51801;DHT22;37855;53.204;6.568;2023-04-15T12:49:20;9.20;72.20
51801;DHT22;37855;53.204;6.568;2023-04-15T12:51:50;9.20;72.80
51801;DHT22;37855;53.204;6.568;2023-04-15T12:54:17;9.20;73.10
51801;DHT22;37855;53.204;6.568;2023-04-15T12:56:44;9.10;73.30
51801;DHT22;37855;53.204;6.568;2023-04-15T12:59:10;9.10;73.10
51801;DHT22;37855;53.204;6.568;2023-04-15T13:01:37;9.10;73.40
51801;DHT22;37855;53.204;6.568;2023-04-15T13:04:03;9.20;73.10
51801;DHT22;37855;53.204;6.568;2023-04-15T13:06:29;9.20;73.00
51801;DHT22;37855;53.204;6.568;2023-04-15T13:08:58;9.10;73.40
51801;DHT22;37855;53.204;6.568;2023-04-15T13:11:24;9.10;73.40
51801;DHT22;37855;53.204;6.568;2023-04-15T13:13:50;9.10;73.40
51801;DHT22;37855;53.204;6.568;2023-04-15T13:16:19;9.10;73.80
51801;DHT22;37855;53.204;6.568;2023-04-15T13:18:45;9.00;74.10
51801;DHT22;37855;53.204;6.568;2023-04-15T13:21:11;9.00;74.60
51801;DHT22;37855;53.204;6.568;2023-04-15T13:23:37;9.00;74.60
51801;DHT22;37855;53.204;6.568;2023-04-15T13:26:03;8.90;74.90
51801;DHT22;37855;53.204;6.568;2023-04-15T13:28:32;8.90;74.90
51801;DHT22;37855;53.204;6.568;2023-04-15T13:30:57;8.90;75.00
51801;DHT22;37855;53.204;6.568;2023-04-15T13:33:25;8.80;75.40
51801;DHT22;37855;53.204;6.568;2023-04-15T13:35:50;8.80;75.70
51801;DHT22;37855;53.204;6.568;2023-04-15T13:38:16;8.80;75.80
51801;DHT22;37855;53.204;6.568;2023-04-15T13:40:42;8.80;75.60
51801;DHT22;37855;53.204;6.568;2023-04-15T13:43:07;8.80;75.50
51801;DHT22;37855;53.204;6.568;2023-04-15T13:45:33;8.80;75.70
51801;DHT22;37855;53.204;6.568;2023-04-15T13:47:59;8.70;75.70
51801;DHT22;37855;53.204;6.568;2023-04-15T13:50:24;8.70;75.90
51801;DHT22;37855;53.204;6.568;2023-04-15T13:52:50;8.70;76.10
51801;DHT22;37855;53.204;6.568;2023-04-15T13:55:19;8.70;76.10
51801;DHT22;37855;53.204;6.568;2023-04-15T13:57:44;8.70;76.20
51801;DHT22;37855;53.204;6.568;2023-04-15T14:00:11;8.70;76.30
51801;DHT22;37855;53.204;6.568;2023-04-15T14:02:38;8.70;76.40
51801;DHT22;37855;53.204;6.568;2023-04-15T14:05:04;8.70;76.70
51801;DHT22;37855;53.204;6.568;2023-04-15T14:07:30;8.80;76.50
51801;DHT22;37855;53.204;6.568;2023-04-15T14:09:56;8.70;76.40
51801;DHT22;37855;53.204;6.568;2023-04-15T14:12:21;8.70;76.40
51801;DHT22;37855;53.204;6.568;2023-04-15T14:14:47;8.70;76.50
51801;DHT22;37855;53.204;6.568;2023-04-15T14:17:13;8.80;76.40
51801;DHT22;37855;53.204;6.568;2023-04-15T14:19:39;8.70;76.50
51801;DHT22;37855;53.204;6.568;2023-04-15T14:22:04;8.70;76.70
51801;DHT22;37855;53.204;6.568;2023-04-15T14:24:31;8.70;76.60
51801;DHT22;37855;53.204;6.568;2023-04-15T14:26:58;8.60;76.70
51801;DHT22;37855;53.204;6.568;2023-04-15T14:29:24;8.60;77.10
51801;DHT22;37855;53.204;6.568;2023-04-15T14:31:49;8.60;77.30
51801;DHT22;37855;53.204;6.568;2023-04-15T14:34:16;8.60;77.20
51801;DHT22;37855;53.204;6.568;2023-04-15T14:36:41;8.60;77.20
51801;DHT22;37855;53.204;6.568;2023-04-15T14:39:08;8.60;77.30
51801;DHT22;37855;53.204;6.568;2023-04-15T14:41:34;8.60;77.40
51801;DHT22;37855;53.204;6.568;2023-04-15T14:44:02;8.60;77.30
51801;DHT22;37855;53.204;6.568;2023-04-15T14:46:28;8.50;77.60
51801;DHT22;37855;53.204;6.568;2023-04-15T14:48:53;8.40;77.70
51801;DHT22;37855;53.204;6.568;2023-04-15T14:51:19;8.40;77.90
51801;DHT22;37855;53.204;6.568;2023-04-15T14:53:45;8.40;77.70
51801;DHT22;37855;53.204;6.568;2023-04-15T14:56:10;8.40;78.00
51801;DHT22;37855;53.204;6.568;2023-04-15T14:58:36;8.40;78.20
51801;DHT22;37855;53.204;6.568;2023-04-15T15:01:03;8.40;78.20
51801;DHT22;37855;53.204;6.568;2023-04-15T15:03:29;8.40;78.10
51801;DHT22;37855;53.204;6.568;2023-04-15T15:05:55;8.40;78.20
51801;DHT22;37855;53.204;6.568;2023-04-15T15:08:22;8.30;78.40
51801;DHT22;37855;53.204;6.568;2023-04-15T15:10:48;8.40;78.40
51801;DHT22;37855;53.204;6.568;2023-04-15T15:13:14;8.40;78.40
51801;DHT22;37855;53.204;6.568;2023-04-15T15:15:41;8.40;78.40
51801;DHT22;37855;53.204;6.568;2023-04-15T15:18:09;8.30;78.50
51801;DHT22;37855;53.204;6.568;2023-04-15T15:20:35;8.30;78.60
51801;DHT22;37855;53.204;6.568;2023-04-15T15:23:00;8.30;78.80
51801;DHT22;37855;53.204;6.568;2023-04-15T15:25:26;8.30;78.70
51801;DHT22;37855;53.204;6.568;2023-04-15T15:27:52;8.40;78.60
51801;DHT22;37855;53.204;6.568;2023-04-15T15:30:18;8.40;78.70
51801;DHT22;37855;53.204;6.568;2023-04-15T15:32:44;8.40;78.50
51801;DHT22;37855;53.204;6.568;2023-04-15T15:35:09;8.30;79.10
51801;DHT22;37855;53.204;6.568;2023-04-15T15:37:36;8.20;79.10
51801;DHT22;37855;53.204;6.568;2023-04-15T15:40:06;8.20;79.40
51801;DHT22;37855;53.204;6.568;2023-04-15T15:42:32;8.20;79.50
51801;DHT22;37855;53.204;6.568;2023-04-15T15:44:58;8.20;79.50
51801;DHT22;37855;53.204;6.568;2023-04-15T15:47:24;8.20;79.40